TimeEST,TemperatureF,Dew PointF,Humidity,Sea Level PressureIn,VisibilityMPH,Wind Direction,Wind SpeedMPH,Gust SpeedMPH,PrecipitationIn,Events,Conditions,WindDirDegrees,DateUTC
12:15 AM,33.3,22.1,64,29.90,10.0,NW,13.8,25.3,N/A,,Mostly Cloudy,320,2012-12-22 05:15:00
12:34 AM,32.7,21.7,64,29.91,10.0,NW,10.4,20.7,N/A,,Mostly Cloudy,310,2012-12-22 05:34:00
12:54 AM,32.7,21.9,64,29.92,10.0,NW,10.4,19.6,N/A,,Scattered Clouds,310,2012-12-22 05:54:00
1:15 AM,33.1,22.1,64,29.93,10.0,WNW,15.0,24.2,N/A,,Mostly Cloudy,300,2012-12-22 06:15:00
1:34 AM,33.4,21.9,63,29.93,10.0,NW,15.0,23.0,N/A,,Overcast,310,2012-12-22 06:34:00
1:55 AM,33.4,21.2,61,29.95,10.0,NW,15.0,29.9,N/A,,Overcast,310,2012-12-22 06:55:00
2:14 AM,33.4,21.2,61,29.95,10.0,NW,12.7,25.3,N/A,,Overcast,310,2012-12-22 07:14:00
2:34 AM,33.3,21.0,61,29.97,10.0,NW,12.7,24.2,N/A,,Overcast,310,2012-12-22 07:34:00
2:55 AM,33.3,21.7,63,29.97,10.0,NW,10.4,19.6,N/A,,Overcast,310,2012-12-22 07:55:00
3:14 AM,32.9,21.6,63,29.98,10.0,NW,11.5,25.3,N/A,,Overcast,310,2012-12-22 08:14:00
3:35 AM,32.9,21.7,64,29.98,10.0,NW,10.4,23.0,N/A,,Overcast,310,2012-12-22 08:35:00
3:55 AM,32.9,22.6,66,29.98,10.0,NW,10.4,16.1,N/A,,Overcast,310,2012-12-22 08:55:00
4:14 AM,32.7,23.0,67,29.99,10.0,WNW,13.8,19.6,N/A,,Overcast,300,2012-12-22 09:14:00
4:35 AM,32.0,22.1,67,30.00,10.0,NW,12.7,23.0,N/A,,Overcast,310,2012-12-22 09:35:00
4:54 AM,32.0,21.7,66,30.00,10.0,WNW,10.4,21.9,N/A,,Overcast,300,2012-12-22 09:54:00
5:15 AM,31.8,21.6,66,30.01,10.0,WNW,11.5,17.3,N/A,,Overcast,290,2012-12-22 10:15:00
5:35 AM,31.6,20.8,64,30.01,10.0,WNW,9.2,18.4,N/A,,Overcast,290,2012-12-22 10:35:00
5:54 AM,30.9,19.9,64,30.02,10.0,NW,16.1,23.0,N/A,,Overcast,310,2012-12-22 10:54:00
6:15 AM,30.7,20.3,65,30.03,10.0,NW,13.8,19.6,N/A,,Overcast,310,2012-12-22 11:15:00
6:34 AM,30.9,20.7,66,30.03,10.0,NW,13.8,19.6,N/A,,Overcast,310,2012-12-22 11:34:00
6:54 AM,30.7,20.3,65,30.04,10.0,NW,10.4,20.7,N/A,,Overcast,310,2012-12-22 11:54:00
7:15 AM,30.2,19.9,66,30.05,10.0,WNW,12.7,20.7,N/A,,Overcast,300,2012-12-22 12:15:00
7:34 AM,30.2,19.8,65,30.05,10.0,NW,9.2,20.7,N/A,,Overcast,310,2012-12-22 12:34:00
7:55 AM,30.2,19.9,66,30.06,10.0,WNW,12.7,20.7,N/A,,Overcast,300,2012-12-22 12:55:00
8:15 AM,30.2,20.3,67,30.07,10.0,NW,9.2,17.3,N/A,,Overcast,310,2012-12-22 13:15:00
8:34 AM,30.2,20.7,68,30.07,10.0,WNW,8.1,-,N/A,,Overcast,300,2012-12-22 13:34:00
8:55 AM,30.6,21.4,69,30.08,10.0,West,9.2,-,N/A,,Overcast,280,2012-12-22 13:55:00
9:15 AM,30.9,20.7,66,30.08,10.0,WNW,10.4,16.1,N/A,,Overcast,290,2012-12-22 14:15:00
9:34 AM,31.8,20.3,62,30.09,10.0,WNW,11.5,17.3,N/A,,Scattered Clouds,290,2012-12-22 14:34:00
9:55 AM,31.1,19.9,63,30.10,10.0,WNW,9.2,20.7,N/A,,Mostly Cloudy,300,2012-12-22 14:55:00
10:14 AM,32.0,21.2,64,30.10,10.0,West,9.2,20.7,N/A,,Mostly Cloudy,280,2012-12-22 15:14:00
10:35 AM,32.2,20.5,62,30.11,10.0,WNW,10.4,18.4,N/A,,Scattered Clouds,290,2012-12-22 15:35:00
10:55 AM,32.9,21.6,63,30.10,10.0,WNW,9.2,-,N/A,,Mostly Cloudy,300,2012-12-22 15:55:00
11:14 AM,33.1,21.2,62,30.09,10.0,NW,12.7,17.3,N/A,,Mostly Cloudy,310,2012-12-22 16:14:00
11:35 AM,33.1,21.4,62,30.08,10.0,West,10.4,17.3,N/A,,Mostly Cloudy,280,2012-12-22 16:35:00
11:54 AM,35.2,22.5,60,30.07,10.0,WNW,10.4,16.1,N/A,,Mostly Cloudy,290,2012-12-22 16:54:00
12:15 PM,34.9,21.2,57,30.08,10.0,WNW,12.7,18.4,N/A,,Mostly Cloudy,290,2012-12-22 17:15:00
12:35 PM,36.0,21.9,57,30.07,10.0,WNW,11.5,23.0,N/A,,Mostly Cloudy,290,2012-12-22 17:35:00
12:54 PM,36.7,22.3,56,30.07,10.0,WNW,12.7,19.6,N/A,,Mostly Cloudy,290,2012-12-22 17:54:00
1:15 PM,36.5,21.6,55,30.06,10.0,NW,13.8,17.3,N/A,,Scattered Clouds,310,2012-12-22 18:15:00
1:34 PM,36.9,21.9,55,30.05,10.0,West,11.5,16.1,N/A,,Clear,280,2012-12-22 18:34:00
1:55 PM,37.4,22.1,54,30.05,10.0,West,10.4,-,N/A,,Clear,280,2012-12-22 18:55:00
2:15 PM,37.4,21.7,53,30.04,10.0,WSW,13.8,-,N/A,,Clear,250,2012-12-22 19:15:00
2:34 PM,37.4,21.4,52,30.04,10.0,West,12.7,17.3,N/A,,Clear,270,2012-12-22 19:34:00
2:55 PM,37.8,23.4,56,30.04,10.0,West,13.8,17.3,N/A,,Clear,260,2012-12-22 19:55:00
3:15 PM,37.2,22.6,56,30.04,10.0,WSW,12.7,18.4,N/A,,Clear,250,2012-12-22 20:15:00
3:35 PM,37.4,24.1,59,30.04,10.0,West,9.2,-,N/A,,Clear,260,2012-12-22 20:35:00
3:55 PM,37.4,23.5,57,30.05,10.0,West,12.7,17.3,N/A,,Clear,270,2012-12-22 20:55:00
4:14 PM,36.9,23.7,59,30.04,10.0,WSW,11.5,17.3,N/A,,Clear,250,2012-12-22 21:14:00
4:35 PM,36.3,23.7,60,30.04,10.0,WSW,8.1,16.1,N/A,,Clear,250,2012-12-22 21:35:00
4:55 PM,34.9,23.5,63,30.04,10.0,WSW,8.1,-,N/A,,Clear,250,2012-12-22 21:55:00
5:35 PM,33.1,24.8,72,30.05,10.0,WSW,10.4,-,N/A,,Clear,240,2012-12-22 22:35:00
5:55 PM,32.5,24.8,73,30.05,10.0,WSW,8.1,-,N/A,,Clear,240,2012-12-22 22:55:00
6:15 PM,32.0,24.6,74,30.05,10.0,WSW,9.2,-,N/A,,Clear,240,2012-12-22 23:15:00
6:35 PM,32.0,24.8,75,30.05,10.0,WSW,9.2,-,N/A,,Clear,250,2012-12-22 23:35:00
6:54 PM,32.0,24.6,74,30.05,10.0,WSW,6.9,-,N/A,,Clear,240,2012-12-22 23:54:00
7:15 PM,31.5,24.3,75,30.06,10.0,WSW,8.1,-,N/A,,Clear,250,2012-12-23 00:15:00
7:35 PM,31.1,24.1,75,30.06,10.0,WSW,11.5,-,N/A,,Clear,250,2012-12-23 00:35:00
7:54 PM,30.6,24.3,77,30.06,10.0,WSW,9.2,-,N/A,,Clear,250,2012-12-23 00:54:00
8:15 PM,30.2,24.3,79,30.06,10.0,WSW,6.9,-,N/A,,Clear,250,2012-12-23 01:15:00
8:34 PM,29.8,24.4,80,30.06,10.0,WSW,6.9,-,N/A,,Clear,240,2012-12-23 01:34:00
8:55 PM,29.3,23.9,80,30.06,10.0,WSW,8.1,-,N/A,,Clear,240,2012-12-23 01:55:00
9:15 PM,28.8,23.4,80,30.06,10.0,WSW,9.2,-,N/A,,Clear,240,2012-12-23 02:15:00
9:34 PM,28.4,22.6,79,30.06,10.0,WSW,11.5,-,N/A,,Clear,250,2012-12-23 02:34:00
9:55 PM,27.9,21.9,78,30.04,10.0,WSW,9.2,-,N/A,,Clear,240,2012-12-23 02:55:00
10:14 PM,27.5,21.2,77,30.03,10.0,WSW,8.1,-,N/A,,Clear,240,2012-12-23 03:14:00
10:35 PM,27.5,20.8,76,30.03,10.0,WSW,8.1,-,N/A,,Clear,240,2012-12-23 03:35:00
10:55 PM,27.3,20.8,77,30.03,10.0,WSW,6.9,-,N/A,,Clear,240,2012-12-23 03:55:00
11:14 PM,26.8,21.0,79,30.02,10.0,SW,6.9,-,N/A,,Clear,220,2012-12-23 04:14:00
11:35 PM,26.4,21.2,81,30.01,10.0,SW,5.8,-,N/A,,Clear,230,2012-12-23 04:35:00
11:54 PM,26.6,21.2,80,30.02,10.0,WSW,6.9,-,N/A,,Clear,240,2012-12-23 04:54:00